sensor_id;sensor_type;location;lat;lon;timestamp;P1;durP1;ratioP1;P2;durP2;ratioP2
17662;SDS011;8950;56.892;15.090;2022-07-04T00:00:44;2.45;;;1.90;;
17662;SDS011;8950;56.892;15.090;2022-07-04T00:03:10;3.97;;;1.85;;
17662;SDS011;8950;56.892;15.090;2022-07-04T00:05:37;3.28;;;1.90;;
17662;SDS011;8950;56.892;15.090;2022-07-04T00:08:05;2.83;;;1.83;;
17662;SDS011;8950;56.892;15.090;2022-07-04T00:10:31;2.15;;;1.98;;
17662;SDS011;8950;56.892;15.090;2022-07-04T00:12:58;1.98;;;1.77;;
17662;SDS011;8950;56.892;15.090;2022-07-04T00:15:24;2.25;;;1.88;;
17662;SDS011;8950;56.892;15.090;2022-07-04T00:17:51;2.45;;;2.00;;
17662;SDS011;8950;56.892;15.090;2022-07-04T00:20:17;2.47;;;1.90;;
17662;SDS011;8950;56.892;15.090;2022-07-04T00:22:44;2.72;;;2.05;;
17662;SDS011;8950;56.892;15.090;2022-07-04T00:25:12;6.10;;;2.53;;
17662;SDS011;8950;56.892;15.090;2022-07-04T00:27:38;2.83;;;2.08;;
17662;SDS011;8950;56.892;15.090;2022-07-04T00:30:05;2.40;;;2.30;;
17662;SDS011;8950;56.892;15.090;2022-07-04T00:32:32;3.53;;;2.20;;
17662;SDS011;8950;56.892;15.090;2022-07-04T00:34:58;2.58;;;1.85;;
17662;SDS011;8950;56.892;15.090;2022-07-04T00:37:25;3.33;;;2.05;;
17662;SDS011;8950;56.892;15.090;2022-07-04T00:39:51;4.25;;;2.03;;
17662;SDS011;8950;56.892;15.090;2022-07-04T00:42:19;2.55;;;1.70;;
17662;SDS011;8950;56.892;15.090;2022-07-04T00:44:45;2.47;;;2.05;;
17662;SDS011;8950;56.892;15.090;2022-07-04T00:47:12;2.17;;;1.98;;
17662;SDS011;8950;56.892;15.090;2022-07-04T00:49:38;3.45;;;2.28;;
17662;SDS011;8950;56.892;15.090;2022-07-04T00:52:06;2.83;;;2.17;;
17662;SDS011;8950;56.892;15.090;2022-07-04T00:54:32;2.55;;;2.03;;
17662;SDS011;8950;56.892;15.090;2022-07-04T00:56:59;2.72;;;2.13;;
17662;SDS011;8950;56.892;15.090;2022-07-04T00:59:27;2.65;;;2.40;;
17662;SDS011;8950;56.892;15.090;2022-07-04T01:01:53;2.90;;;2.00;;
17662;SDS011;8950;56.892;15.090;2022-07-04T01:04:20;3.22;;;2.22;;
17662;SDS011;8950;56.892;15.090;2022-07-04T01:06:46;2.22;;;2.10;;
17662;SDS011;8950;56.892;15.090;2022-07-04T01:09:14;2.20;;;2.00;;
17662;SDS011;8950;56.892;15.090;2022-07-04T01:11:41;2.65;;;2.20;;
17662;SDS011;8950;56.892;15.090;2022-07-04T01:14:07;2.63;;;2.30;;
17662;SDS011;8950;56.892;15.090;2022-07-04T01:16:35;4.18;;;2.05;;
17662;SDS011;8950;56.892;15.090;2022-07-04T01:19:02;2.42;;;2.20;;
17662;SDS011;8950;56.892;15.090;2022-07-04T01:21:30;3.28;;;2.13;;
17662;SDS011;8950;56.892;15.090;2022-07-04T01:23:57;1.98;;;1.85;;
17662;SDS011;8950;56.892;15.090;2022-07-04T01:26:23;2.50;;;2.10;;
17662;SDS011;8950;56.892;15.090;2022-07-04T01:28:50;2.03;;;1.92;;
17662;SDS011;8950;56.892;15.090;2022-07-04T01:31:16;5.28;;;2.20;;
17662;SDS011;8950;56.892;15.090;2022-07-04T01:33:43;2.00;;;1.90;;
17662;SDS011;8950;56.892;15.090;2022-07-04T01:36:09;2.95;;;2.00;;
17662;SDS011;8950;56.892;15.090;2022-07-04T01:38:37;2.65;;;1.98;;
17662;SDS011;8950;56.892;15.090;2022-07-04T01:41:04;3.17;;;2.20;;
17662;SDS011;8950;56.892;15.090;2022-07-04T01:43:30;2.78;;;2.08;;
17662;SDS011;8950;56.892;15.090;2022-07-04T01:45:56;3.75;;;2.13;;
17662;SDS011;8950;56.892;15.090;2022-07-04T01:48:23;2.00;;;1.80;;
17662;SDS011;8950;56.892;15.090;2022-07-04T01:50:49;2.60;;;1.90;;
17662;SDS011;8950;56.892;15.090;2022-07-04T01:53:16;2.13;;;1.80;;
17662;SDS011;8950;56.892;15.090;2022-07-04T01:55:43;3.67;;;2.10;;
17662;SDS011;8950;56.892;15.090;2022-07-04T01:58:10;2.80;;;2.03;;
17662;SDS011;8950;56.892;15.090;2022-07-04T02:00:37;3.38;;;2.10;;
17662;SDS011;8950;56.892;15.090;2022-07-04T02:03:21;4.07;;;2.20;;
17662;SDS011;8950;56.892;15.090;2022-07-04T02:05:48;2.22;;;2.00;;
17662;SDS011;8950;56.892;15.090;2022-07-04T02:08:14;4.40;;;2.20;;
17662;SDS011;8950;56.892;15.090;2022-07-04T02:10:41;2.63;;;2.10;;
17662;SDS011;8950;56.892;15.090;2022-07-04T02:13:08;2.63;;;2.10;;
17662;SDS011;8950;56.892;15.090;2022-07-04T02:15:34;3.67;;;2.20;;
17662;SDS011;8950;56.892;15.090;2022-07-04T02:18:02;2.40;;;2.20;;
17662;SDS011;8950;56.892;15.090;2022-07-04T02:20:29;2.63;;;2.05;;
17662;SDS011;8950;56.892;15.090;2022-07-04T02:22:56;2.72;;;1.90;;
17662;SDS011;8950;56.892;15.090;2022-07-04T02:25:22;2.20;;;2.00;;
17662;SDS011;8950;56.892;15.090;2022-07-04T02:27:49;2.38;;;2.17;;
17662;SDS011;8950;56.892;15.090;2022-07-04T02:30:17;2.75;;;2.40;;
17662;SDS011;8950;56.892;15.090;2022-07-04T02:32:43;2.20;;;2.00;;
17662;SDS011;8950;56.892;15.090;2022-07-04T02:35:10;2.00;;;1.90;;
17662;SDS011;8950;56.892;15.090;2022-07-04T02:37:37;2.42;;;2.15;;
17662;SDS011;8950;56.892;15.090;2022-07-04T02:40:04;2.30;;;2.10;;
17662;SDS011;8950;56.892;15.090;2022-07-04T02:42:31;4.40;;;2.10;;
17662;SDS011;8950;56.892;15.090;2022-07-04T02:44:57;2.35;;;1.98;;
17662;SDS011;8950;56.892;15.090;2022-07-04T02:47:26;2.95;;;2.10;;
17662;SDS011;8950;56.892;15.090;2022-07-04T02:49:53;2.25;;;2.05;;
17662;SDS011;8950;56.892;15.090;2022-07-04T02:52:19;2.20;;;2.10;;
17662;SDS011;8950;56.892;15.090;2022-07-04T02:54:46;3.03;;;2.10;;
17662;SDS011;8950;56.892;15.090;2022-07-04T02:57:13;2.50;;;2.30;;
17662;SDS011;8950;56.892;15.090;2022-07-04T02:59:40;2.78;;;2.20;;
17662;SDS011;8950;56.892;15.090;2022-07-04T03:02:06;2.28;;;2.08;;
17662;SDS011;8950;56.892;15.090;2022-07-04T03:04:34;2.45;;;2.25;;
17662;SDS011;8950;56.892;15.090;2022-07-04T03:07:01;2.78;;;2.45;;
17662;SDS011;8950;56.892;15.090;2022-07-04T03:09:27;2.67;;;2.40;;
17662;SDS011;8950;56.892;15.090;2022-07-04T03:11:53;2.33;;;2.13;;
17662;SDS011;8950;56.892;15.090;2022-07-04T03:14:20;2.42;;;2.22;;
17662;SDS011;8950;56.892;15.090;2022-07-04T03:16:46;2.40;;;2.20;;
17662;SDS011;8950;56.892;15.090;2022-07-04T03:19:13;2.88;;;2.22;;
17662;SDS011;8950;56.892;15.090;2022-07-04T03:21:43;2.95;;;2.58;;
17662;SDS011;8950;56.892;15.090;2022-07-04T03:24:09;3.15;;;2.03;;
17662;SDS011;8950;56.892;15.090;2022-07-04T03:26:36;3.17;;;2.30;;
17662;SDS011;8950;56.892;15.090;2022-07-04T03:29:03;2.40;;;2.20;;
17662;SDS011;8950;56.892;15.090;2022-07-04T03:31:30;2.55;;;2.35;;
17662;SDS011;8950;56.892;15.090;2022-07-04T03:33:56;6.32;;;2.90;;
17662;SDS011;8950;56.892;15.090;2022-07-04T03:36:22;4.45;;;2.83;;
17662;SDS011;8950;56.892;15.090;2022-07-04T03:38:50;2.75;;;2.55;;
17662;SDS011;8950;56.892;15.090;2022-07-04T03:41:17;3.83;;;2.30;;
17662;SDS011;8950;56.892;15.090;2022-07-04T03:43:43;4.32;;;2.55;;
17662;SDS011;8950;56.892;15.090;2022-07-04T03:46:10;3.70;;;2.50;;
17662;SDS011;8950;56.892;15.090;2022-07-04T03:48:36;3.72;;;2.67;;
17662;SDS011;8950;56.892;15.090;2022-07-04T03:51:03;3.78;;;2.70;;
17662;SDS011;8950;56.892;15.090;2022-07-04T03:53:29;3.13;;;2.50;;
17662;SDS011;8950;56.892;15.090;2022-07-04T03:55:57;3.88;;;2.65;;
17662;SDS011;8950;56.892;15.090;2022-07-04T03:58:23;3.95;;;2.50;;
17662;SDS011;8950;56.892;15.090;2022-07-04T04:00:50;3.08;;;2.53;;
17662;SDS011;8950;56.892;15.090;2022-07-04T04:03:16;2.50;;;2.30;;
17662;SDS011;8950;56.892;15.090;2022-07-04T04:06:00;4.30;;;2.63;;
17662;SDS011;8950;56.892;15.090;2022-07-04T04:08:26;2.47;;;2.25;;
17662;SDS011;8950;56.892;15.090;2022-07-04T04:10:53;3.38;;;2.42;;
17662;SDS011;8950;56.892;15.090;2022-07-04T04:13:21;2.40;;;2.20;;
17662;SDS011;8950;56.892;15.090;2022-07-04T04:15:47;3.58;;;2.63;;
17662;SDS011;8950;56.892;15.090;2022-07-04T04:18:14;2.85;;;2.35;;
17662;SDS011;8950;56.892;15.090;2022-07-04T04:20:40;2.85;;;2.55;;
17662;SDS011;8950;56.892;15.090;2022-07-04T04:23:06;3.88;;;2.70;;
17662;SDS011;8950;56.892;15.090;2022-07-04T04:25:33;3.05;;;2.75;;
17662;SDS011;8950;56.892;15.090;2022-07-04T04:27:59;3.22;;;2.30;;
17662;SDS011;8950;56.892;15.090;2022-07-04T04:30:27;3.70;;;2.50;;
17662;SDS011;8950;56.892;15.090;2022-07-04T04:32:53;2.75;;;2.35;;
17662;SDS011;8950;56.892;15.090;2022-07-04T04:35:20;3.53;;;2.30;;
17662;SDS011;8950;56.892;15.090;2022-07-04T04:37:46;4.38;;;2.45;;
17662;SDS011;8950;56.892;15.090;2022-07-04T04:40:13;3.30;;;2.35;;
17662;SDS011;8950;56.892;15.090;2022-07-04T04:42:39;3.55;;;2.50;;
17662;SDS011;8950;56.892;15.090;2022-07-04T04:45:06;2.85;;;2.58;;
17662;SDS011;8950;56.892;15.090;2022-07-04T04:47:34;2.83;;;2.63;;
17662;SDS011;8950;56.892;15.090;2022-07-04T04:50:00;3.22;;;2.63;;
17662;SDS011;8950;56.892;15.090;2022-07-04T04:52:27;3.33;;;2.70;;
17662;SDS011;8950;56.892;15.090;2022-07-04T04:54:53;3.97;;;2.90;;
17662;SDS011;8950;56.892;15.090;2022-07-04T04:57:20;3.78;;;2.83;;
17662;SDS011;8950;56.892;15.090;2022-07-04T04:59:46;3.67;;;2.92;;
17662;SDS011;8950;56.892;15.090;2022-07-04T05:02:13;4.35;;;2.80;;
17662;SDS011;8950;56.892;15.090;2022-07-04T05:04:41;3.53;;;2.55;;
17662;SDS011;8950;56.892;15.090;2022-07-04T05:07:07;3.67;;;2.97;;
17662;SDS011;8950;56.892;15.090;2022-07-04T05:09:34;3.15;;;2.55;;
17662;SDS011;8950;56.892;15.090;2022-07-04T05:12:00;2.60;;;2.40;;
17662;SDS011;8950;56.892;15.090;2022-07-04T05:14:26;3.75;;;3.05;;
17662;SDS011;8950;56.892;15.090;2022-07-04T05:16:53;3.15;;;2.85;;
17662;SDS011;8950;56.892;15.090;2022-07-04T05:19:20;3.15;;;2.92;;
17662;SDS011;8950;56.892;15.090;2022-07-04T05:21:48;3.20;;;2.90;;
17662;SDS011;8950;56.892;15.090;2022-07-04T05:24:14;3.55;;;2.88;;
17662;SDS011;8950;56.892;15.090;2022-07-04T05:26:41;3.25;;;2.90;;
17662;SDS011;8950;56.892;15.090;2022-07-04T05:29:07;3.53;;;3.22;;
17662;SDS011;8950;56.892;15.090;2022-07-04T05:31:34;5.55;;;3.00;;
17662;SDS011;8950;56.892;15.090;2022-07-04T05:34:00;2.95;;;2.70;;
17662;SDS011;8950;56.892;15.090;2022-07-04T05:36:27;3.97;;;3.58;;
17662;SDS011;8950;56.892;15.090;2022-07-04T05:38:55;4.68;;;2.97;;
17662;SDS011;8950;56.892;15.090;2022-07-04T05:41:21;5.07;;;2.97;;
17662;SDS011;8950;56.892;15.090;2022-07-04T05:43:48;3.47;;;3.17;;
17662;SDS011;8950;56.892;15.090;2022-07-04T05:46:14;3.30;;;2.85;;
17662;SDS011;8950;56.892;15.090;2022-07-04T05:48:41;3.10;;;2.78;;
17662;SDS011;8950;56.892;15.090;2022-07-04T05:51:08;3.00;;;2.75;;
17662;SDS011;8950;56.892;15.090;2022-07-04T05:53:34;3.47;;;3.03;;
17662;SDS011;8950;56.892;15.090;2022-07-04T05:56:03;4.85;;;3.40;;
17662;SDS011;8950;56.892;15.090;2022-07-04T05:58:29;4.10;;;2.97;;
17662;SDS011;8950;56.892;15.090;2022-07-04T06:00:56;4.28;;;3.30;;
17662;SDS011;8950;56.892;15.090;2022-07-04T06:03:22;3.42;;;3.13;;
17662;SDS011;8950;56.892;15.090;2022-07-04T06:05:49;3.65;;;3.35;;
17662;SDS011;8950;56.892;15.090;2022-07-04T06:08:15;3.78;;;3.38;;
17662;SDS011;8950;56.892;15.090;2022-07-04T06:10:41;3.88;;;3.50;;
17662;SDS011;8950;56.892;15.090;2022-07-04T06:13:09;3.35;;;3.05;;
17662;SDS011;8950;56.892;15.090;2022-07-04T06:15:36;3.40;;;3.10;;
17662;SDS011;8950;56.892;15.090;2022-07-04T06:18:02;4.50;;;3.38;;
17662;SDS011;8950;56.892;15.090;2022-07-04T06:20:29;3.95;;;3.03;;
17662;SDS011;8950;56.892;15.090;2022-07-04T06:22:55;4.57;;;3.45;;
17662;SDS011;8950;56.892;15.090;2022-07-04T06:25:22;4.20;;;3.80;;
17662;SDS011;8950;56.892;15.090;2022-07-04T06:27:48;4.60;;;3.30;;
17662;SDS011;8950;56.892;15.090;2022-07-04T06:30:18;3.20;;;2.88;;
17662;SDS011;8950;56.892;15.090;2022-07-04T06:32:45;4.38;;;3.25;;
17662;SDS011;8950;56.892;15.090;2022-07-04T06:35:12;3.25;;;2.95;;
17662;SDS011;8950;56.892;15.090;2022-07-04T06:37:56;3.80;;;3.40;;
17662;SDS011;8950;56.892;15.090;2022-07-04T06:40:22;4.25;;;3.70;;
17662;SDS011;8950;56.892;15.090;2022-07-04T06:42:49;4.53;;;3.42;;
17662;SDS011;8950;56.892;15.090;2022-07-04T06:45:15;3.63;;;3.33;;
17662;SDS011;8950;56.892;15.090;2022-07-04T06:47:43;4.35;;;3.40;;
17662;SDS011;8950;56.892;15.090;2022-07-04T06:50:10;3.83;;;3.33;;
17662;SDS011;8950;56.892;15.090;2022-07-04T06:52:36;4.40;;;3.58;;
17662;SDS011;8950;56.892;15.090;2022-07-04T06:55:03;4.50;;;3.80;;
17662;SDS011;8950;56.892;15.090;2022-07-04T06:57:30;3.90;;;3.45;;
17662;SDS011;8950;56.892;15.090;2022-07-04T06:59:56;3.92;;;3.17;;
17662;SDS011;8950;56.892;15.090;2022-07-04T07:02:23;4.93;;;3.50;;
17662;SDS011;8950;56.892;15.090;2022-07-04T07:04:51;4.38;;;3.92;;
17662;SDS011;8950;56.892;15.090;2022-07-04T07:07:17;3.78;;;3.47;;
17662;SDS011;8950;56.892;15.090;2022-07-04T07:09:43;4.75;;;3.88;;
17662;SDS011;8950;56.892;15.090;2022-07-04T07:12:10;4.32;;;3.92;;
17662;SDS011;8950;56.892;15.090;2022-07-04T07:14:36;3.83;;;3.45;;
17662;SDS011;8950;56.892;15.090;2022-07-04T07:17:03;4.85;;;3.97;;
17662;SDS011;8950;56.892;15.090;2022-07-04T07:19:29;5.00;;;4.10;;
17662;SDS011;8950;56.892;15.090;2022-07-04T07:21:57;4.57;;;3.97;;
17662;SDS011;8950;56.892;15.090;2022-07-04T07:24:24;4.90;;;3.55;;
17662;SDS011;8950;56.892;15.090;2022-07-04T07:26:51;5.28;;;4.22;;
17662;SDS011;8950;56.892;15.090;2022-07-04T07:29:17;5.68;;;3.95;;
17662;SDS011;8950;56.892;15.090;2022-07-04T07:31:44;4.82;;;3.67;;
17662;SDS011;8950;56.892;15.090;2022-07-04T07:34:10;4.93;;;4.10;;
17662;SDS011;8950;56.892;15.090;2022-07-04T07:36:36;4.22;;;3.80;;
17662;SDS011;8950;56.892;15.090;2022-07-04T07:39:04;4.07;;;3.70;;
17662;SDS011;8950;56.892;15.090;2022-07-04T07:41:31;3.35;;;3.10;;
17662;SDS011;8950;56.892;15.090;2022-07-04T07:43:57;3.50;;;3.30;;
17662;SDS011;8950;56.892;15.090;2022-07-04T07:46:24;4.45;;;3.80;;
17662;SDS011;8950;56.892;15.090;2022-07-04T07:48:51;4.63;;;3.63;;
17662;SDS011;8950;56.892;15.090;2022-07-04T07:51:17;4.68;;;4.10;;
17662;SDS011;8950;56.892;15.090;2022-07-04T07:53:44;4.47;;;4.07;;
17662;SDS011;8950;56.892;15.090;2022-07-04T07:56:11;3.58;;;3.38;;
17662;SDS011;8950;56.892;15.090;2022-07-04T07:58:38;4.75;;;3.72;;
17662;SDS011;8950;56.892;15.090;2022-07-04T08:01:04;4.05;;;3.45;;
17662;SDS011;8950;56.892;15.090;2022-07-04T08:03:31;3.92;;;3.40;;
17662;SDS011;8950;56.892;15.090;2022-07-04T08:06:15;4.28;;;3.88;;
17662;SDS011;8950;56.892;15.090;2022-07-04T08:08:41;4.05;;;2.80;;
17662;SDS011;8950;56.892;15.090;2022-07-04T08:11:08;2.70;;;2.50;;
17662;SDS011;8950;56.892;15.090;2022-07-04T08:13:37;2.95;;;2.65;;
17662;SDS011;8950;56.892;15.090;2022-07-04T08:16:04;2.95;;;2.05;;
17662;SDS011;8950;56.892;15.090;2022-07-04T08:18:30;2.20;;;2.00;;
17662;SDS011;8950;56.892;15.090;2022-07-04T08:20:57;2.80;;;2.10;;
17662;SDS011;8950;56.892;15.090;2022-07-04T08:23:23;2.40;;;2.20;;
17662;SDS011;8950;56.892;15.090;2022-07-04T08:25:50;2.90;;;2.42;;
17662;SDS011;8950;56.892;15.090;2022-07-04T08:28:16;2.42;;;2.22;;
17662;SDS011;8950;56.892;15.090;2022-07-04T08:30:44;2.58;;;2.38;;
17662;SDS011;8950;56.892;15.090;2022-07-04T08:33:11;3.75;;;2.33;;
17662;SDS011;8950;56.892;15.090;2022-07-04T08:35:37;3.05;;;2.33;;
17662;SDS011;8950;56.892;15.090;2022-07-04T08:38:04;2.33;;;2.20;;
17662;SDS011;8950;56.892;15.090;2022-07-04T08:40:30;2.55;;;2.30;;
17662;SDS011;8950;56.892;15.090;2022-07-04T08:42:59;2.40;;;2.20;;
17662;SDS011;8950;56.892;15.090;2022-07-04T08:45:29;2.40;;;2.20;;
17662;SDS011;8950;56.892;15.090;2022-07-04T08:47:59;3.25;;;2.28;;
17662;SDS011;8950;56.892;15.090;2022-07-04T08:50:28;4.63;;;2.47;;
17662;SDS011;8950;56.892;15.090;2022-07-04T08:52:56;2.30;;;2.08;;
17662;SDS011;8950;56.892;15.090;2022-07-04T08:55:24;2.50;;;2.30;;
17662;SDS011;8950;56.892;15.090;2022-07-04T08:58:08;2.80;;;2.47;;
17662;SDS011;8950;56.892;15.090;2022-07-04T09:00:56;2.85;;;2.22;;
17662;SDS011;8950;56.892;15.090;2022-07-04T09:03:24;2.53;;;2.33;;
17662;SDS011;8950;56.892;15.090;2022-07-04T09:05:51;2.75;;;2.35;;
17662;SDS011;8950;56.892;15.090;2022-07-04T09:08:17;2.67;;;2.47;;
17662;SDS011;8950;56.892;15.090;2022-07-04T09:10:43;2.53;;;2.33;;
17662;SDS011;8950;56.892;15.090;2022-07-04T09:13:11;3.10;;;2.30;;
17662;SDS011;8950;56.892;15.090;2022-07-04T09:15:39;2.55;;;2.22;;
17662;SDS011;8950;56.892;15.090;2022-07-04T09:18:06;2.40;;;2.30;;
17662;SDS011;8950;56.892;15.090;2022-07-04T09:20:34;2.92;;;2.10;;
17662;SDS011;8950;56.892;15.090;2022-07-04T09:23:00;2.20;;;2.10;;
17662;SDS011;8950;56.892;15.090;2022-07-04T09:25:27;4.15;;;2.30;;
17662;SDS011;8950;56.892;15.090;2022-07-04T09:27:54;2.72;;;2.00;;
17662;SDS011;8950;56.892;15.090;2022-07-04T09:30:21;2.95;;;2.00;;
17662;SDS011;8950;56.892;15.090;2022-07-04T09:32:48;1.92;;;1.83;;
17662;SDS011;8950;56.892;15.090;2022-07-04T09:35:17;2.03;;;1.80;;
17662;SDS011;8950;56.892;15.090;2022-07-04T09:37:49;2.88;;;1.95;;
17662;SDS011;8950;56.892;15.090;2022-07-04T09:40:22;2.22;;;2.03;;
17662;SDS011;8950;56.892;15.090;2022-07-04T09:42:49;2.13;;;1.85;;
17662;SDS011;8950;56.892;15.090;2022-07-04T09:45:16;3.67;;;2.10;;
17662;SDS011;8950;56.892;15.090;2022-07-04T09:47:44;1.98;;;1.80;;
17662;SDS011;8950;56.892;15.090;2022-07-04T09:50:12;3.25;;;2.45;;
17662;SDS011;8950;56.892;15.090;2022-07-04T09:52:47;2.13;;;1.95;;
17662;SDS011;8950;56.892;15.090;2022-07-04T09:55:19;2.53;;;2.30;;
17662;SDS011;8950;56.892;15.090;2022-07-04T09:57:46;1.95;;;1.85;;
17662;SDS011;8950;56.892;15.090;2022-07-04T10:00:16;1.95;;;1.70;;
17662;SDS011;8950;56.892;15.090;2022-07-04T10:02:43;2.25;;;1.90;;
17662;SDS011;8950;56.892;15.090;2022-07-04T10:05:09;1.80;;;1.70;;
17662;SDS011;8950;56.892;15.090;2022-07-04T10:07:36;2.30;;;1.95;;
17662;SDS011;8950;56.892;15.090;2022-07-04T10:10:30;1.83;;;1.73;;
17662;SDS011;8950;56.892;15.090;2022-07-04T10:12:58;1.88;;;1.77;;
17662;SDS011;8950;56.892;15.090;2022-07-04T10:15:25;1.98;;;1.80;;
17662;SDS011;8950;56.892;15.090;2022-07-04T10:17:52;1.70;;;1.60;;
17662;SDS011;8950;56.892;15.090;2022-07-04T10:20:19;1.77;;;1.67;;
17662;SDS011;8950;56.892;15.090;2022-07-04T10:22:46;2.13;;;1.73;;
17662;SDS011;8950;56.892;15.090;2022-07-04T10:25:13;1.90;;;1.80;;
17662;SDS011;8950;56.892;15.090;2022-07-04T10:27:41;2.42;;;1.75;;
17662;SDS011;8950;56.892;15.090;2022-07-04T10:30:14;3.33;;;1.70;;
17662;SDS011;8950;56.892;15.090;2022-07-04T10:32:40;1.70;;;1.60;;
17662;SDS011;8950;56.892;15.090;2022-07-04T10:35:12;1.70;;;1.60;;
17662;SDS011;8950;56.892;15.090;2022-07-04T10:38:00;1.85;;;1.50;;
17662;SDS011;8950;56.892;15.090;2022-07-04T10:40:43;1.70;;;1.60;;
17662;SDS011;8950;56.892;15.090;2022-07-04T10:45:57;1.98;;;1.77;;
17662;SDS011;8950;56.892;15.090;2022-07-04T10:48:47;3.50;;;1.90;;
17662;SDS011;8950;56.892;15.090;2022-07-04T10:51:14;3.25;;;1.77;;
17662;SDS011;8950;56.892;15.090;2022-07-04T10:53:57;1.80;;;1.70;;
17662;SDS011;8950;56.892;15.090;2022-07-04T10:56:37;1.90;;;1.80;;
17662;SDS011;8950;56.892;15.090;2022-07-04T10:59:07;2.20;;;2.00;;
17662;SDS011;8950;56.892;15.090;2022-07-04T11:01:36;2.70;;;2.00;;
17662;SDS011;8950;56.892;15.090;2022-07-04T11:04:02;2.22;;;1.88;;
17662;SDS011;8950;56.892;15.090;2022-07-04T11:09:15;2.10;;;1.80;;
17662;SDS011;8950;56.892;15.090;2022-07-04T11:11:48;2.28;;;1.48;;
17662;SDS011;8950;56.892;15.090;2022-07-04T11:17:02;1.60;;;1.48;;
17662;SDS011;8950;56.892;15.090;2022-07-04T11:19:28;2.03;;;1.85;;
17662;SDS011;8950;56.892;15.090;2022-07-04T11:21:55;2.22;;;1.73;;
17662;SDS011;8950;56.892;15.090;2022-07-04T11:24:21;1.65;;;1.55;;
17662;SDS011;8950;56.892;15.090;2022-07-04T11:26:48;2.80;;;1.75;;
17662;SDS011;8950;56.892;15.090;2022-07-04T11:29:15;4.15;;;1.70;;
17662;SDS011;8950;56.892;15.090;2022-07-04T11:31:42;2.00;;;1.70;;
17662;SDS011;8950;56.892;15.090;2022-07-04T11:34:10;1.85;;;1.73;;
17662;SDS011;8950;56.892;15.090;2022-07-04T11:36:37;1.98;;;1.60;;
17662;SDS011;8950;56.892;15.090;2022-07-04T11:39:05;1.75;;;1.63;;
17662;SDS011;8950;56.892;15.090;2022-07-04T11:41:31;2.65;;;1.65;;
17662;SDS011;8950;56.892;15.090;2022-07-04T11:44:16;1.60;;;1.50;;
17662;SDS011;8950;56.892;15.090;2022-07-04T11:47:04;1.38;;;1.30;;
17662;SDS011;8950;56.892;15.090;2022-07-04T11:49:32;5.25;;;1.70;;
17662;SDS011;8950;56.892;15.090;2022-07-04T11:51:59;2.03;;;1.33;;
17662;SDS011;8950;56.892;15.090;2022-07-04T11:54:25;2.10;;;1.50;;
17662;SDS011;8950;56.892;15.090;2022-07-04T11:56:52;1.40;;;1.30;;
17662;SDS011;8950;56.892;15.090;2022-07-04T11:59:18;1.63;;;1.20;;
17662;SDS011;8950;56.892;15.090;2022-07-04T12:01:45;2.95;;;1.60;;
17662;SDS011;8950;56.892;15.090;2022-07-04T12:04:15;2.17;;;1.60;;
17662;SDS011;8950;56.892;15.090;2022-07-04T12:06:44;1.63;;;1.52;;
17662;SDS011;8950;56.892;15.090;2022-07-04T12:09:11;2.75;;;1.52;;
17662;SDS011;8950;56.892;15.090;2022-07-04T12:11:54;2.13;;;1.70;;
17662;SDS011;8950;56.892;15.090;2022-07-04T12:14:21;1.73;;;1.60;;
17662;SDS011;8950;56.892;15.090;2022-07-04T12:16:47;3.20;;;1.65;;
17662;SDS011;8950;56.892;15.090;2022-07-04T12:19:14;1.50;;;1.40;;
17662;SDS011;8950;56.892;15.090;2022-07-04T12:21:42;2.95;;;1.73;;
17662;SDS011;8950;56.892;15.090;2022-07-04T12:24:10;1.90;;;1.50;;
17662;SDS011;8950;56.892;15.090;2022-07-04T12:26:45;2.10;;;1.40;;
17662;SDS011;8950;56.892;15.090;2022-07-04T12:29:19;1.58;;;1.48;;
17662;SDS011;8950;56.892;15.090;2022-07-04T12:31:46;2.00;;;1.70;;
17662;SDS011;8950;56.892;15.090;2022-07-04T12:34:16;1.63;;;1.45;;
17662;SDS011;8950;56.892;15.090;2022-07-04T12:36:50;1.50;;;1.40;;
17662;SDS011;8950;56.892;15.090;2022-07-04T12:39:28;2.35;;;1.55;;
17662;SDS011;8950;56.892;15.090;2022-07-04T12:42:03;1.55;;;1.38;;
17662;SDS011;8950;56.892;15.090;2022-07-04T12:44:29;1.77;;;1.63;;
17662;SDS011;8950;56.892;15.090;2022-07-04T12:46:56;1.48;;;1.38;;
17662;SDS011;8950;56.892;15.090;2022-07-04T12:49:22;1.92;;;1.67;;
17662;SDS011;8950;56.892;15.090;2022-07-04T12:51:49;1.88;;;1.48;;
17662;SDS011;8950;56.892;15.090;2022-07-04T12:54:16;1.80;;;1.23;;
17662;SDS011;8950;56.892;15.090;2022-07-04T12:56:44;1.40;;;1.20;;
17662;SDS011;8950;56.892;15.090;2022-07-04T12:59:11;1.50;;;1.40;;
17662;SDS011;8950;56.892;15.090;2022-07-04T13:01:38;1.95;;;1.38;;
17662;SDS011;8950;56.892;15.090;2022-07-04T13:04:04;2.10;;;1.40;;
17662;SDS011;8950;56.892;15.090;2022-07-04T13:06:31;1.60;;;1.50;;
17662;SDS011;8950;56.892;15.090;2022-07-04T13:08:57;1.52;;;1.42;;
17662;SDS011;8950;56.892;15.090;2022-07-04T13:11:24;2.55;;;1.52;;
17662;SDS011;8950;56.892;15.090;2022-07-04T13:14:09;2.03;;;1.92;;
17662;SDS011;8950;56.892;15.090;2022-07-04T13:16:36;2.55;;;1.92;;
17662;SDS011;8950;56.892;15.090;2022-07-04T13:19:03;1.65;;;1.42;;
17662;SDS011;8950;56.892;15.090;2022-07-04T13:21:30;1.55;;;1.45;;
17662;SDS011;8950;56.892;15.090;2022-07-04T13:23:56;1.63;;;1.35;;
17662;SDS011;8950;56.892;15.090;2022-07-04T13:26:23;2.72;;;1.77;;
17662;SDS011;8950;56.892;15.090;2022-07-04T13:28:50;2.35;;;1.42;;
17662;SDS011;8950;56.892;15.090;2022-07-04T13:31:17;2.42;;;1.63;;
17662;SDS011;8950;56.892;15.090;2022-07-04T13:33:44;3.13;;;1.50;;
17662;SDS011;8950;56.892;15.090;2022-07-04T13:36:11;3.20;;;1.55;;
17662;SDS011;8950;56.892;15.090;2022-07-04T13:38:38;1.75;;;1.48;;
17662;SDS011;8950;56.892;15.090;2022-07-04T13:41:04;2.78;;;1.40;;
17662;SDS011;8950;56.892;15.090;2022-07-04T13:43:31;2.42;;;1.50;;
17662;SDS011;8950;56.892;15.090;2022-07-04T13:45:57;2.13;;;1.50;;
17662;SDS011;8950;56.892;15.090;2022-07-04T13:48:25;1.50;;;1.40;;
17662;SDS011;8950;56.892;15.090;2022-07-04T13:50:51;2.70;;;1.40;;
17662;SDS011;8950;56.892;15.090;2022-07-04T13:53:18;2.15;;;1.70;;
17662;SDS011;8950;56.892;15.090;2022-07-04T13:55:45;1.80;;;1.45;;
17662;SDS011;8950;56.892;15.090;2022-07-04T13:58:11;4.45;;;1.58;;
17662;SDS011;8950;56.892;15.090;2022-07-04T14:00:38;2.80;;;1.60;;
17662;SDS011;8950;56.892;15.090;2022-07-04T14:03:09;1.40;;;1.30;;
17662;SDS011;8950;56.892;15.090;2022-07-04T14:05:38;1.98;;;1.70;;
17662;SDS011;8950;56.892;15.090;2022-07-04T14:08:07;1.90;;;1.42;;
17662;SDS011;8950;56.892;15.090;2022-07-04T14:10:33;1.52;;;1.42;;
17662;SDS011;8950;56.892;15.090;2022-07-04T14:13:00;2.63;;;1.70;;
17662;SDS011;8950;56.892;15.090;2022-07-04T14:15:27;1.70;;;1.23;;
17662;SDS011;8950;56.892;15.090;2022-07-04T14:17:53;1.83;;;1.25;;
17662;SDS011;8950;56.892;15.090;2022-07-04T14:20:20;2.72;;;1.40;;
17662;SDS011;8950;56.892;15.090;2022-07-04T14:22:47;1.67;;;1.20;;
17662;SDS011;8950;56.892;15.090;2022-07-04T14:25:14;1.52;;;1.25;;
17662;SDS011;8950;56.892;15.090;2022-07-04T14:27:40;2.17;;;1.10;;
17662;SDS011;8950;56.892;15.090;2022-07-04T14:30:07;2.17;;;1.27;;
17662;SDS011;8950;56.892;15.090;2022-07-04T14:32:34;2.33;;;1.40;;
17662;SDS011;8950;56.892;15.090;2022-07-04T14:35:00;3.70;;;1.38;;
17662;SDS011;8950;56.892;15.090;2022-07-04T14:37:27;1.15;;;1.05;;
17662;SDS011;8950;56.892;15.090;2022-07-04T14:39:55;1.30;;;1.20;;
17662;SDS011;8950;56.892;15.090;2022-07-04T14:42:21;1.60;;;1.05;;
17662;SDS011;8950;56.892;15.090;2022-07-04T14:44:48;2.50;;;1.35;;
17662;SDS011;8950;56.892;15.090;2022-07-04T14:47:15;3.25;;;1.40;;
17662;SDS011;8950;56.892;15.090;2022-07-04T14:49:41;1.10;;;1.00;;
17662;SDS011;8950;56.892;15.090;2022-07-04T14:52:09;1.40;;;1.30;;
17662;SDS011;8950;56.892;15.090;2022-07-04T14:54:36;1.20;;;1.10;;
17662;SDS011;8950;56.892;15.090;2022-07-04T14:57:04;0.93;;;0.93;;
17662;SDS011;8950;56.892;15.090;2022-07-04T14:59:32;1.60;;;1.20;;